Time;durP1;ratioP1;P1;durP2;ratioP2;P2;SDS_P1;SDS_P2;PMS_P1;PMS_P2;Temp;Humidity;BMP_temperature;BMP_pressure;BME280_temperature;BME280_humidity;BME280_pressure;Samples;Min_cycle;Max_cycle;Signal;HPM_P1;HPM_P2
2023/05/14 00:00:42;;;;;;;12.57;9.33;;;8.70;99.90;;;;;;5007827;28;20226;-54
2023/05/14 00:03:08;;;;;;;12.37;9.60;;;8.70;99.90;;;;;;5007735;28;20169;-55
2023/05/14 00:05:33;;;;;;;12.47;9.20;;;8.80;99.90;;;;;;5006214;28;20208;-54
2023/05/14 00:07:59;;;;;;;11.47;9.10;;;8.80;99.90;;;;;;5002771;28;20702;-54
2023/05/14 00:10:26;;;;;;;13.00;8.80;;;8.80;99.90;;;;;;5010552;28;20294;-53
2023/05/14 00:12:52;;;;;;;13.00;10.17;;;8.70;99.90;;;;;;5008108;28;20212;-56
2023/05/14 00:15:18;;;;;;;12.83;9.50;;;8.70;99.90;;;;;;5004388;28;20428;-54
2023/05/14 00:17:44;;;;;;;14.10;9.87;;;8.60;99.90;;;;;;5011083;28;20453;-54
2023/05/14 00:20:11;;;;;;;14.30;9.50;;;8.60;99.90;;;;;;5010704;28;20200;-54
2023/05/14 00:22:38;;;;;;;12.10;9.27;;;8.60;99.90;;;;;;5016161;28;20179;-54
2023/05/14 00:25:05;;;;;;;12.60;9.60;;;8.60;99.90;;;;;;5005717;28;20436;-55
2023/05/14 00:27:31;;;;;;;20.43;9.77;;;8.50;99.90;;;;;;5001142;28;20432;-55
2023/05/14 00:29:56;;;;;;;13.93;9.47;;;8.50;99.90;;;;;;5014313;28;20450;-55
2023/05/14 00:32:23;;;;;;;15.73;9.83;;;8.40;99.90;;;;;;5001267;28;20668;-53
2023/05/14 00:34:48;;;;;;;15.57;9.60;;;8.40;99.90;;;;;;5004102;28;20187;-56
2023/05/14 00:37:14;;;;;;;12.47;9.80;;;8.30;99.90;;;;;;5018982;28;20422;-55
2023/05/14 00:39:39;;;;;;;16.30;10.40;;;8.30;99.90;;;;;;5013473;28;20277;-56
2023/05/14 00:42:05;;;;;;;12.90;9.70;;;8.30;99.90;;;;;;5009123;28;20588;-54
2023/05/14 00:44:31;;;;;;;14.50;10.60;;;8.20;99.90;;;;;;5022243;28;20167;-53
2023/05/14 00:46:57;;;;;;;13.77;9.80;;;8.20;99.90;;;;;;5005931;28;20255;-56
2023/05/14 00:49:24;;;;;;;14.50;9.20;;;8.20;99.90;;;;;;5017640;28;20192;-55
2023/05/14 00:51:51;;;;;;;11.33;9.10;;;8.20;99.90;;;;;;5012301;28;20970;-58
2023/05/14 00:54:18;;;;;;;12.23;8.97;;;8.20;99.90;;;;;;5013570;28;20407;-55
2023/05/14 00:56:45;;;;;;;12.10;9.00;;;8.20;99.90;;;;;;5010674;28;20489;-55
2023/05/14 00:59:11;;;;;;;12.87;9.20;;;8.30;99.90;;;;;;5005908;28;20829;-54
2023/05/14 01:01:37;;;;;;;12.07;8.83;;;8.30;99.90;;;;;;5004668;28;20447;-55
2023/05/14 01:04:03;;;;;;;15.70;8.57;;;8.30;99.90;;;;;;5010437;28;20484;-56
2023/05/14 01:06:34;;;;;;;13.37;9.53;;;8.30;99.90;;;;;;5007907;28;20255;-58
2023/05/14 01:09:25;;;;;;;11.13;8.90;;;8.40;99.90;;;;;;5006419;28;20431;-56
2023/05/14 01:11:58;;;;;;;12.80;9.47;;;8.40;99.90;;;;;;5020400;28;21288;-55
2023/05/14 01:14:43;;;;;;;16.30;9.70;;;8.40;99.90;;;;;;5018987;28;20431;-55
2023/05/14 01:17:11;;;;;;;11.80;9.03;;;8.40;99.90;;;;;;5007983;28;20490;-60
2023/05/14 01:19:44;;;;;;;12.10;9.00;;;8.50;99.90;;;;;;5022600;28;20461;-52
2023/05/14 01:22:10;;;;;;;12.73;9.70;;;8.50;99.90;;;;;;5012176;28;20534;-54
2023/05/14 01:24:36;;;;;;;11.53;8.87;;;8.50;99.90;;;;;;5014476;28;20878;-53
2023/05/14 01:27:28;;;;;;;12.53;8.83;;;8.50;99.90;;;;;;5016794;28;20458;-53
2023/05/14 01:30:18;;;;;;;10.73;8.40;;;8.50;99.90;;;;;;5012050;28;20191;-55
2023/05/14 01:32:49;;;;;;;11.50;9.20;;;8.50;99.90;;;;;;5006997;28;20500;-53
2023/05/14 01:35:15;;;;;;;11.80;8.80;;;8.60;99.90;;;;;;5006979;28;21324;-52
2023/05/14 01:37:42;;;;;;;24.80;9.90;;;8.60;99.90;;;;;;5015156;28;20451;-53
2023/05/14 01:40:10;;;;;;;11.80;8.67;;;8.60;99.90;;;;;;5017542;28;20467;-53
2023/05/14 01:42:37;;;;;;;13.47;9.70;;;8.60;99.90;;;;;;5015416;28;20402;-53
2023/05/14 01:45:03;;;;;;;13.73;10.53;;;8.60;99.90;;;;;;5009376;28;20471;-54
2023/05/14 01:47:28;;;;;;;15.03;9.60;;;8.60;99.90;;;;;;5015344;28;20458;-55
2023/05/14 01:49:54;;;;;;;12.00;9.57;;;8.60;99.90;;;;;;5013352;28;20511;-55
2023/05/14 01:52:20;;;;;;;12.10;8.70;;;8.70;99.90;;;;;;5111988;22;20340;-56
2023/05/14 01:54:46;;;;;;;13.17;8.83;;;8.70;99.90;;;;;;5006354;28;20683;-56
2023/05/14 01:57:12;;;;;;;11.47;8.97;;;8.70;99.90;;;;;;5004893;28;20177;-56
2023/05/14 01:59:38;;;;;;;10.90;8.30;;;8.70;99.90;;;;;;5005674;28;20469;-56
2023/05/14 02:02:03;;;;;;;11.73;8.97;;;8.70;99.90;;;;;;5001993;28;20416;-56
2023/05/14 02:04:29;;;;;;;12.47;9.30;;;8.70;99.90;;;;;;5002860;28;20177;-57
2023/05/14 02:06:55;;;;;;;13.97;9.00;;;8.70;99.90;;;;;;5002159;28;22226;-56
2023/05/14 02:09:20;;;;;;;12.80;8.53;;;8.70;99.90;;;;;;5005043;28;20673;-56
2023/05/14 02:11:46;;;;;;;11.87;8.50;;;8.70;99.90;;;;;;5001918;28;20700;-57
2023/05/14 02:14:11;;;;;;;12.33;8.33;;;8.70;99.90;;;;;;5008817;28;20177;-57
2023/05/14 02:16:37;;;;;;;9.13;8.20;;;8.70;99.90;;;;;;5001750;28;20173;-57
2023/05/14 02:19:02;;;;;;;13.53;9.23;;;8.70;99.90;;;;;;5000424;28;20250;-56
2023/05/14 02:21:28;;;;;;;10.17;8.33;;;8.70;99.90;;;;;;5006533;28;20266;-57
2023/05/14 02:23:54;;;;;;;13.87;9.20;;;8.70;99.90;;;;;;5000904;28;20223;-56
2023/05/14 02:26:20;;;;;;;13.03;9.70;;;8.70;99.90;;;;;;5007403;28;20180;-57
2023/05/14 02:28:46;;;;;;;12.63;8.93;;;8.70;99.90;;;;;;5003087;28;20541;-56
2023/05/14 02:31:11;;;;;;;12.50;8.60;;;8.70;99.90;;;;;;5014238;28;20223;-57
2023/05/14 02:33:37;;;;;;;13.70;9.43;;;8.80;99.90;;;;;;5005978;28;20683;-56
2023/05/14 02:36:03;;;;;;;11.60;9.37;;;8.70;99.90;;;;;;5005717;28;20612;-57
2023/05/14 02:38:28;;;;;;;14.90;9.40;;;8.80;99.90;;;;;;4999851;28;20235;-58
2023/05/14 02:40:54;;;;;;;14.83;9.80;;;8.70;99.90;;;;;;5006935;28;20200;-57
2023/05/14 02:43:20;;;;;;;14.30;10.10;;;8.80;99.90;;;;;;5006312;28;20195;-56
2023/05/14 02:45:45;;;;;;;12.30;9.40;;;8.80;99.90;;;;;;5005472;28;20263;-56
2023/05/14 02:48:11;;;;;;;12.17;9.43;;;8.80;99.90;;;;;;5007124;28;20185;-57
2023/05/14 02:50:37;;;;;;;11.77;9.97;;;8.80;99.90;;;;;;5000885;28;20688;-56
2023/05/14 02:53:02;;;;;;;12.57;9.80;;;8.80;99.90;;;;;;5003355;28;20284;-56
2023/05/14 02:55:28;;;;;;;12.60;9.83;;;8.80;99.90;;;;;;5003577;28;20183;-56
2023/05/14 02:57:54;;;;;;;12.10;9.50;;;8.80;99.90;;;;;;5006928;28;20208;-56
2023/05/14 03:00:20;;;;;;;11.83;9.20;;;8.80;99.90;;;;;;5006489;28;20272;-57
2023/05/14 03:02:45;;;;;;;16.13;8.73;;;8.90;99.90;;;;;;5001867;28;20295;-56
2023/05/14 03:05:11;;;;;;;12.53;9.23;;;8.90;99.90;;;;;;5002971;28;20180;-56
2023/05/14 03:07:36;;;;;;;14.90;9.67;;;8.90;99.90;;;;;;5003501;28;20260;-56
2023/05/14 03:10:03;;;;;;;14.43;10.50;;;8.90;99.90;;;;;;5005916;28;20184;-56
2023/05/14 03:12:28;;;;;;;13.60;10.37;;;8.90;99.90;;;;;;5004756;28;20225;-56
2023/05/14 03:14:54;;;;;;;15.00;10.00;;;8.90;99.90;;;;;;5003245;28;20432;-56
2023/05/14 03:17:19;;;;;;;20.47;9.63;;;8.90;99.90;;;;;;5006176;28;20780;-56
2023/05/14 03:19:45;;;;;;;12.03;9.80;;;9.00;99.90;;;;;;5004845;28;20177;-55
2023/05/14 03:22:10;;;;;;;12.57;9.47;;;9.00;99.90;;;;;;5006462;28;20276;-56
2023/05/14 03:24:38;;;;;;;13.40;9.80;;;9.00;99.90;;;;;;5001127;28;20176;-56
2023/05/14 03:27:04;;;;;;;12.63;9.83;;;9.00;99.90;;;;;;5004219;28;20169;-57
2023/05/14 03:29:30;;;;;;;13.90;10.03;;;9.00;99.90;;;;;;5000070;28;20834;-57
2023/05/14 03:31:56;;;;;;;17.13;9.80;;;9.00;99.90;;;;;;4999240;28;20230;-56
2023/05/14 03:34:21;;;;;;;13.20;10.03;;;9.00;99.90;;;;;;5003511;28;20786;-57
2023/05/14 03:36:47;;;;;;;13.90;9.60;;;9.00;99.90;;;;;;5004566;28;20255;-57
2023/05/14 03:39:18;;;;;;;12.83;9.17;;;9.00;99.90;;;;;;5005889;28;20607;-56
2023/05/14 03:41:45;;;;;;;11.83;9.63;;;9.00;99.90;;;;;;5001989;28;20216;-56
2023/05/14 03:44:11;;;;;;;14.67;9.20;;;9.00;99.90;;;;;;5002917;28;20434;-56
2023/05/14 03:46:37;;;;;;;13.67;9.00;;;9.00;99.90;;;;;;5004124;28;20511;-56
2023/05/14 03:49:02;;;;;;;15.60;9.67;;;9.00;99.90;;;;;;5001965;28;20439;-56
2023/05/14 03:51:28;;;;;;;15.20;9.67;;;9.00;99.90;;;;;;5003955;28;20246;-56
2023/05/14 03:53:54;;;;;;;12.07;9.30;;;9.00;99.90;;;;;;5001837;28;20500;-57
2023/05/14 03:56:20;;;;;;;12.93;10.30;;;9.00;99.90;;;;;;5007366;28;20258;-57
2023/05/14 03:58:45;;;;;;;13.57;9.73;;;9.00;99.90;;;;;;5002070;28;20666;-57
2023/05/14 04:01:11;;;;;;;12.73;9.50;;;9.10;99.90;;;;;;5003229;28;20192;-57
2023/05/14 04:03:36;;;;;;;13.73;9.60;;;9.10;99.90;;;;;;4996276;28;20168;-57
2023/05/14 04:06:02;;;;;;;13.23;9.70;;;9.10;99.90;;;;;;5003467;28;20379;-57
2023/05/14 04:08:28;;;;;;;12.57;9.33;;;9.20;99.90;;;;;;5003757;28;20263;-57
2023/05/14 04:10:54;;;;;;;12.13;9.27;;;9.20;99.90;;;;;;5002957;28;20531;-56
2023/05/14 04:13:19;;;;;;;13.03;10.07;;;9.20;99.90;;;;;;5002243;28;20176;-57
2023/05/14 04:15:45;;;;;;;12.60;9.93;;;9.20;99.90;;;;;;5005124;28;20180;-56
2023/05/14 04:18:10;;;;;;;13.43;10.27;;;9.20;99.90;;;;;;5003974;28;20694;-57
2023/05/14 04:20:36;;;;;;;16.93;10.27;;;9.20;99.90;;;;;;4996149;28;20181;-56
2023/05/14 04:23:02;;;;;;;12.57;9.97;;;9.30;99.90;;;;;;5003899;28;20248;-56
2023/05/14 04:25:27;;;;;;;12.60;9.20;;;9.30;99.90;;;;;;5004938;28;20176;-57
2023/05/14 04:27:53;;;;;;;13.60;9.80;;;9.30;99.90;;;;;;5003509;28;20169;-56
2023/05/14 04:30:18;;;;;;;14.30;9.00;;;9.30;99.90;;;;;;5000249;28;20669;-56
2023/05/14 04:32:44;;;;;;;13.50;10.10;;;9.30;99.90;;;;;;5004526;28;20226;-57
2023/05/14 04:35:11;;;;;;;12.80;9.30;;;9.30;99.90;;;;;;5001519;28;20267;-57
2023/05/14 04:37:36;;;;;;;14.83;10.20;;;9.40;99.90;;;;;;5002316;28;20177;-57
2023/05/14 04:40:02;;;;;;;13.07;10.07;;;9.40;99.90;;;;;;5000354;28;20458;-57
2023/05/14 04:42:28;;;;;;;14.00;10.53;;;9.40;99.90;;;;;;5003015;28;20328;-57
2023/05/14 04:44:54;;;;;;;20.03;10.67;;;9.40;99.90;;;;;;5001940;28;20522;-56
2023/05/14 04:47:19;;;;;;;17.63;11.43;;;9.40;99.90;;;;;;5002400;28;20168;-57
2023/05/14 04:49:45;;;;;;;14.37;10.90;;;9.40;99.90;;;;;;5001247;28;20184;-57
2023/05/14 04:52:11;;;;;;;16.50;9.83;;;9.40;99.90;;;;;;5001724;28;20474;-56
2023/05/14 04:54:36;;;;;;;12.40;9.60;;;9.50;99.90;;;;;;4992090;28;20198;-57
2023/05/14 04:57:02;;;;;;;13.47;9.90;;;9.50;99.90;;;;;;5004005;28;20535;-56
2023/05/14 04:59:30;;;;;;;13.37;10.23;;;9.50;99.90;;;;;;5002460;28;20258;-56
2023/05/14 05:01:56;;;;;;;13.47;10.53;;;9.50;99.90;;;;;;5001900;28;20207;-56
2023/05/14 05:04:23;;;;;;;12.77;10.00;;;9.50;99.90;;;;;;5000192;28;20427;-56
2023/05/14 05:06:49;;;;;;;14.07;10.60;;;9.50;99.90;;;;;;5002951;28;20668;-56
2023/05/14 05:09:16;;;;;;;13.17;10.33;;;9.50;99.90;;;;;;5001431;28;20872;-56
2023/05/14 05:11:42;;;;;;;14.27;10.57;;;9.50;99.90;;;;;;5000506;28;20538;-56
2023/05/14 05:14:07;;;;;;;13.90;11.43;;;9.60;99.90;;;;;;5002658;28;20515;-56
2023/05/14 05:16:33;;;;;;;15.83;11.53;;;9.60;99.90;;;;;;5005066;28;20176;-56
2023/05/14 05:18:58;;;;;;;13.53;10.37;;;9.60;99.90;;;;;;4998988;28;20278;-56
2023/05/14 05:21:24;;;;;;;13.07;10.33;;;9.60;99.90;;;;;;5004410;28;20217;-57
2023/05/14 05:23:50;;;;;;;11.70;9.50;;;9.60;99.90;;;;;;4999488;28;20173;-57
2023/05/14 05:26:16;;;;;;;13.20;10.57;;;9.70;99.90;;;;;;5004578;28;20430;-57
2023/05/14 05:28:41;;;;;;;17.73;10.60;;;9.70;99.90;;;;;;5002968;28;20726;-56
2023/05/14 05:31:07;;;;;;;14.07;9.87;;;9.70;99.90;;;;;;4998799;28;20192;-57
2023/05/14 05:33:34;;;;;;;19.20;10.60;;;9.80;99.90;;;;;;5004479;28;20708;-57
2023/05/14 05:35:59;;;;;;;17.13;11.97;;;9.80;99.90;;;;;;5004203;28;20665;-57
2023/05/14 05:38:25;;;;;;;17.77;12.00;;;9.80;99.90;;;;;;5002569;28;20463;-56
2023/05/14 05:40:51;;;;;;;15.77;11.20;;;9.80;99.90;;;;;;4998575;28;20252;-57
2023/05/14 05:43:16;;;;;;;19.10;13.20;;;9.90;99.90;;;;;;5003269;28;20208;-58
2023/05/14 05:45:42;;;;;;;17.60;12.33;;;9.90;99.90;;;;;;5004685;28;20173;-57
2023/05/14 05:48:08;;;;;;;18.13;13.40;;;10.00;99.90;;;;;;5006014;28;20193;-57
2023/05/14 05:50:34;;;;;;;20.47;14.00;;;10.00;99.90;;;;;;5002964;28;20177;-57
2023/05/14 05:52:59;;;;;;;24.53;17.40;;;10.00;99.90;;;;;;5003625;28;20216;-57
2023/05/14 05:55:25;;;;;;;21.80;15.30;;;10.10;99.90;;;;;;5008792;28;20840;-57
2023/05/14 05:57:51;;;;;;;25.20;16.37;;;10.10;99.90;;;;;;5007614;28;20268;-57
2023/05/14 06:00:17;;;;;;;23.67;16.30;;;10.20;99.90;;;;;;5006703;28;20173;-56
2023/05/14 06:02:43;;;;;;;22.50;16.00;;;10.20;99.90;;;;;;5002865;28;20200;-57
2023/05/14 06:05:09;;;;;;;26.93;15.70;;;10.20;99.90;;;;;;5006148;28;20431;-57
2023/05/14 06:07:35;;;;;;;25.80;17.00;;;10.30;99.90;;;;;;5007819;28;20207;-58
2023/05/14 06:10:01;;;;;;;26.63;16.40;;;10.30;99.90;;;;;;5007002;28;20423;-57
2023/05/14 06:12:27;;;;;;;25.30;16.47;;;10.30;99.90;;;;;;5005249;28;20545;-57
2023/05/14 06:14:54;;;;;;;22.73;15.10;;;10.40;99.90;;;;;;5006242;28;20651;-56
2023/05/14 06:17:20;;;;;;;21.77;13.23;;;10.40;99.90;;;;;;5003977;28;20517;-57
2023/05/14 06:19:45;;;;;;;19.57;14.00;;;10.50;99.90;;;;;;5000208;28;20494;-57
2023/05/14 06:22:11;;;;;;;18.30;13.13;;;10.50;99.90;;;;;;5009839;28;20471;-57
2023/05/14 06:24:37;;;;;;;23.27;15.27;;;10.50;99.90;;;;;;5003942;28;20177;-56
2023/05/14 06:27:03;;;;;;;19.63;13.93;;;10.50;99.90;;;;;;5004240;28;20637;-56
2023/05/14 06:29:28;;;;;;;21.20;13.07;;;10.50;99.90;;;;;;5006076;28;20219;-56
2023/05/14 06:31:55;;;;;;;17.23;12.50;;;10.50;99.90;;;;;;5004551;28;20227;-56
2023/05/14 06:34:21;;;;;;;17.20;13.20;;;10.60;99.90;;;;;;5005618;28;20212;-56
2023/05/14 06:36:47;;;;;;;18.80;13.67;;;10.60;99.90;;;;;;5004838;28;20446;-56
2023/05/14 06:39:12;;;;;;;15.80;12.30;;;10.60;99.90;;;;;;5005205;28;20204;-56
2023/05/14 06:41:38;;;;;;;20.03;12.80;;;10.70;99.90;;;;;;5005227;28;20207;-56
2023/05/14 06:44:04;;;;;;;19.80;14.07;;;10.70;99.90;;;;;;5007279;28;20192;-56
2023/05/14 06:46:29;;;;;;;25.53;12.83;;;10.70;99.90;;;;;;5006376;28;20164;-56
2023/05/14 06:48:55;;;;;;;20.27;12.90;;;10.70;99.90;;;;;;5001703;28;20180;-55
2023/05/14 06:51:21;;;;;;;17.83;13.07;;;10.80;99.90;;;;;;4997243;28;20702;-57
2023/05/14 06:53:47;;;;;;;20.17;13.20;;;10.80;99.90;;;;;;5001545;28;20195;-57
2023/05/14 06:56:13;;;;;;;22.47;13.13;;;10.90;99.90;;;;;;5005259;28;20175;-56
2023/05/14 06:58:39;;;;;;;19.23;11.80;;;11.00;99.90;;;;;;5004690;28;20772;-56
2023/05/14 07:01:05;;;;;;;14.07;11.47;;;11.10;99.90;;;;;;4999779;28;20578;-57
2023/05/14 07:03:30;;;;;;;13.20;10.27;;;11.10;99.90;;;;;;5000526;28;20176;-57
2023/05/14 07:05:56;;;;;;;13.87;10.60;;;11.20;99.90;;;;;;5005918;28;20732;-58
2023/05/14 07:08:22;;;;;;;14.13;10.23;;;11.30;99.90;;;;;;5006639;28;20263;-57
2023/05/14 07:10:47;;;;;;;17.83;11.50;;;11.30;99.90;;;;;;4999605;28;20188;-56
2023/05/14 07:13:13;;;;;;;18.77;12.37;;;11.40;99.90;;;;;;5007689;28;20180;-57
2023/05/14 07:15:39;;;;;;;16.27;10.60;;;11.50;99.90;;;;;;5006370;28;20181;-58
2023/05/14 07:18:04;;;;;;;13.30;10.03;;;11.50;99.90;;;;;;5002532;28;20246;-56
2023/05/14 07:20:30;;;;;;;14.90;10.23;;;11.60;99.90;;;;;;5003338;28;20172;-58
2023/05/14 07:22:55;;;;;;;19.43;10.73;;;11.70;99.90;;;;;;5007682;28;20196;-57
2023/05/14 07:25:21;;;;;;;17.37;10.70;;;11.70;99.90;;;;;;5006509;28;20668;-55
2023/05/14 07:27:47;;;;;;;14.70;10.47;;;11.80;99.90;;;;;;4998663;28;20292;-57
2023/05/14 07:30:12;;;;;;;14.80;10.50;;;11.80;99.90;;;;;;4999030;28;20227;-57
2023/05/14 07:32:38;;;;;;;13.43;9.97;;;11.80;99.90;;;;;;5005616;28;20215;-56
2023/05/14 07:35:05;;;;;;;20.20;11.27;;;11.90;99.90;;;;;;5001329;28;20238;-56
2023/05/14 07:37:30;;;;;;;12.10;9.30;;;11.90;99.90;;;;;;4997403;28;20175;-57
2023/05/14 07:39:56;;;;;;;13.37;8.93;;;11.90;99.90;;;;;;4998607;28;20439;-57
2023/05/14 07:42:21;;;;;;;14.10;7.57;;;12.00;99.90;;;;;;5007588;28;20189;-57
2023/05/14 07:44:47;;;;;;;9.90;7.47;;;12.00;99.90;;;;;;5000487;28;20574;-57
2023/05/14 07:47:13;;;;;;;10.93;8.10;;;12.00;99.90;;;;;;5002713;28;20183;-56
2023/05/14 07:49:38;;;;;;;9.40;7.53;;;12.00;99.90;;;;;;5001902;28;20200;-57
2023/05/14 07:52:04;;;;;;;8.60;6.83;;;12.10;99.90;;;;;;5002433;28;20291;-57
2023/05/14 07:54:30;;;;;;;8.00;6.70;;;12.10;99.90;;;;;;4999824;28;20187;-58
2023/05/14 07:56:55;;;;;;;9.20;6.67;;;12.10;99.90;;;;;;5003207;28;20191;-58
2023/05/14 07:59:21;;;;;;;12.63;6.90;;;12.20;99.90;;;;;;5005458;28;20629;-57
2023/05/14 08:01:46;;;;;;;10.70;6.33;;;12.20;99.90;;;;;;5000481;28;20291;-55
2023/05/14 08:04:14;;;;;;;8.23;6.57;;;12.10;99.90;;;;;;5000473;28;20795;-56
2023/05/14 08:06:40;;;;;;;8.87;6.60;;;12.10;99.90;;;;;;5005326;28;20188;-56
2023/05/14 08:09:07;;;;;;;10.23;7.77;;;12.10;99.90;;;;;;5003363;28;20428;-55
2023/05/14 08:11:33;;;;;;;9.30;6.60;;;12.00;99.90;;;;;;4998781;28;20447;-55
2023/05/14 08:13:59;;;;;;;7.90;6.47;;;12.00;99.90;;;;;;4999712;28;20489;-55
2023/05/14 08:16:25;;;;;;;8.73;6.63;;;11.90;99.90;;;;;;5002595;28;22144;-53
2023/05/14 08:18:50;;;;;;;8.07;6.57;;;12.00;99.90;;;;;;5006134;28;20463;-56
2023/05/14 08:21:16;;;;;;;8.60;7.23;;;12.00;99.90;;;;;;5002573;28;20370;-55
2023/05/14 08:23:42;;;;;;;11.33;7.97;;;12.00;99.90;;;;;;5002195;28;21133;-56
2023/05/14 08:26:08;;;;;;;9.63;7.40;;;12.10;99.90;;;;;;5004199;28;20177;-55
2023/05/14 08:28:34;;;;;;;12.20;8.50;;;12.20;99.90;;;;;;4999995;28;20180;-55
2023/05/14 08:30:59;;;;;;;11.47;9.20;;;12.30;99.90;;;;;;4999575;28;20200;-54
2023/05/14 08:33:25;;;;;;;9.47;8.07;;;12.40;99.90;;;;;;4998168;28;20386;-54
2023/05/14 08:35:51;;;;;;;11.83;7.43;;;12.60;99.90;;;;;;4997334;28;20585;-54
2023/05/14 08:38:17;;;;;;;11.43;8.63;;;12.70;99.90;;;;;;5003830;28;20200;-56
2023/05/14 08:40:54;;;;;;;9.03;7.07;;;12.80;99.90;;;;;;4997660;28;20495;-56
2023/05/14 08:43:24;;;;;;;12.10;8.60;;;12.90;99.90;;;;;;4995528;28;20180;-57
2023/05/14 08:45:56;;;;;;;10.13;7.50;;;12.90;99.90;;;;;;4998846;28;20982;-55
2023/05/14 08:48:23;;;;;;;13.73;8.27;;;12.90;99.90;;;;;;5001493;28;20467;-56
2023/05/14 08:50:49;;;;;;;8.93;6.80;;;12.90;99.90;;;;;;4998437;28;20943;-57
2023/05/14 08:53:14;;;;;;;11.07;7.50;;;12.90;99.90;;;;;;4998332;28;20529;-57
2023/05/14 08:55:41;;;;;;;9.83;7.80;;;12.80;99.90;;;;;;5002929;28;20214;-54
2023/05/14 08:58:07;;;;;;;9.73;6.97;;;12.70;99.90;;;;;;5002683;28;20200;-55
2023/05/14 09:00:33;;;;;;;9.87;7.27;;;12.70;99.90;;;;;;5003894;28;20427;-55
2023/05/14 09:02:59;;;;;;;10.97;7.70;;;12.60;99.90;;;;;;4999323;28;20303;-53
2023/05/14 09:05:26;;;;;;;9.17;6.63;;;12.60;99.90;;;;;;4999944;28;20578;-55
2023/05/14 09:07:52;;;;;;;8.97;6.90;;;12.60;99.90;;;;;;4999501;28;20439;-55
2023/05/14 09:10:18;;;;;;;11.00;7.80;;;12.50;99.90;;;;;;4996805;28;20442;-53
2023/05/14 09:12:43;;;;;;;11.40;7.83;;;12.40;99.90;;;;;;5003718;28;20255;-54
2023/05/14 09:15:09;;;;;;;10.50;7.60;;;12.40;99.90;;;;;;5008006;28;20264;-55
2023/05/14 09:17:35;;;;;;;10.53;7.57;;;12.40;99.90;;;;;;5000579;28;20193;-54
2023/05/14 09:20:01;;;;;;;12.70;8.33;;;12.40;99.90;;;;;;4991270;28;20595;-56
2023/05/14 09:22:30;;;;;;;10.50;7.87;;;12.40;99.90;;;;;;4988633;28;20216;-55
2023/05/14 09:25:08;;;;;;;9.10;7.73;;;12.50;99.90;;;;;;4994450;28;20260;-55
2023/05/14 09:27:35;;;;;;;11.13;7.57;;;12.50;99.90;;;;;;4993582;28;20466;-60
2023/05/14 09:30:12;;;;;;;10.30;7.70;;;12.50;99.90;;;;;;4997579;28;20447;-58
2023/05/14 09:32:39;;;;;;;10.30;6.47;;;12.50;99.90;;;;;;4996854;28;20531;-57
2023/05/14 09:35:22;;;;;;;11.03;7.23;;;12.60;99.90;;;;;;5000258;28;20438;-58
2023/05/14 09:37:53;;;;;;;9.43;6.90;;;12.60;99.90;;;;;;5020161;28;20442;-57
2023/05/14 09:40:21;;;;;;;9.77;7.10;;;12.60;99.90;;;;;;5012929;28;20850;-57
2023/05/14 09:42:48;;;;;;;9.53;7.43;;;12.60;99.90;;;;;;4996239;28;21030;-59
2023/05/14 09:45:14;;;;;;;8.83;6.67;;;12.50;99.90;;;;;;4997578;28;20530;-59
2023/05/14 09:47:40;;;;;;;28.20;18.03;;;12.50;99.90;;;;;;4994416;28;20581;-57
2023/05/14 09:50:07;;;;;;;20.83;13.43;;;12.50;99.90;;;;;;4995438;28;20537;-57
2023/05/14 09:52:33;;;;;;;11.53;7.33;;;12.50;99.90;;;;;;5002065;28;20513;-58
2023/05/14 09:54:59;;;;;;;10.47;7.50;;;12.40;99.90;;;;;;4998904;28;20446;-58
2023/05/14 09:57:25;;;;;;;10.30;6.77;;;12.40;99.90;;;;;;5000570;28;20440;-55
2023/05/14 09:59:52;;;;;;;11.77;7.73;;;12.30;99.90;;;;;;4998629;28;21007;-56
2023/05/14 10:02:24;;;;;;;9.60;7.10;;;12.30;99.90;;;;;;4996590;28;21034;-55
2023/05/14 10:04:52;;;;;;;11.03;7.83;;;12.20;99.90;;;;;;4991441;28;20488;-57
2023/05/14 10:07:22;;;;;;;18.73;9.43;;;12.10;99.90;;;;;;4991917;28;20449;-56
2023/05/14 10:09:50;;;;;;;14.30;9.80;;;12.00;99.90;;;;;;5000718;28;20450;-56
2023/05/14 10:12:21;;;;;;;13.43;9.33;;;11.90;99.90;;;;;;4991801;28;20467;-55
2023/05/14 10:14:52;;;;;;;12.20;9.73;;;11.80;99.90;;;;;;4996979;28;20462;-56
2023/05/14 10:17:20;;;;;;;18.17;9.63;;;11.80;99.90;;;;;;4998495;28;21292;-57
2023/05/14 10:19:55;;;;;;;13.97;9.73;;;11.70;99.90;;;;;;4996618;28;20479;-56
2023/05/14 10:22:30;;;;;;;14.37;9.10;;;11.70;99.90;;;;;;5003174;28;20462;-57
2023/05/14 10:24:56;;;;;;;17.03;9.60;;;11.70;99.90;;;;;;5003274;28;20422;-56
2023/05/14 10:27:22;;;;;;;13.83;9.30;;;11.60;99.90;;;;;;4999779;28;20474;-56
2023/05/14 10:29:55;;;;;;;13.90;9.70;;;11.60;99.90;;;;;;5000625;28;20192;-56
2023/05/14 10:32:23;;;;;;;15.97;10.90;;;11.70;99.90;;;;;;4997614;28;20471;-55
2023/05/14 10:34:50;;;;;;;14.07;9.83;;;11.70;99.90;;;;;;5005123;28;20431;-55
2023/05/14 10:37:15;;;;;;;13.23;9.43;;;11.80;99.90;;;;;;4994372;28;20439;-55
2023/05/14 10:39:52;;;;;;;15.43;10.10;;;11.80;99.90;;;;;;5002190;28;21049;-55
2023/05/14 10:42:18;;;;;;;15.20;10.07;;;11.90;99.90;;;;;;4999251;28;20684;-55
2023/05/14 10:44:49;;;;;;;12.93;10.17;;;11.90;99.90;;;;;;5006612;28;20443;-54
2023/05/14 10:47:16;;;;;;;16.80;11.00;;;11.90;99.90;;;;;;5002804;28;20185;-55
2023/05/14 10:49:43;;;;;;;14.50;10.80;;;12.00;99.90;;;;;;5002507;28;20483;-57
2023/05/14 10:52:10;;;;;;;17.50;10.20;;;12.10;99.90;;;;;;4991140;28;20458;-57
2023/05/14 10:54:37;;;;;;;18.07;11.13;;;12.10;99.90;;;;;;4998990;28;20512;-56
2023/05/14 10:57:02;;;;;;;15.50;10.97;;;12.20;99.90;;;;;;5003319;28;20464;-56
2023/05/14 10:59:28;;;;;;;15.83;11.13;;;12.30;99.90;;;;;;5002124;28;20571;-56
2023/05/14 11:01:56;;;;;;;17.27;11.63;;;12.40;99.90;;;;;;4996261;28;20200;-55
2023/05/14 11:04:27;;;;;;;13.03;10.20;;;12.60;99.90;;;;;;4998312;28;20204;-56
2023/05/14 11:06:54;;;;;;;13.30;10.07;;;12.60;99.90;;;;;;4998738;28;20445;-56
2023/05/14 11:09:21;;;;;;;14.93;10.03;;;12.70;99.90;;;;;;4999290;28;20436;-56
2023/05/14 11:11:47;;;;;;;12.87;9.10;;;12.80;99.90;;;;;;5001761;28;20489;-56
2023/05/14 11:14:13;;;;;;;12.60;9.20;;;12.80;99.90;;;;;;4999173;28;20432;-56
2023/05/14 11:16:40;;;;;;;11.20;8.43;;;12.90;99.90;;;;;;4990563;28;20204;-56
2023/05/14 11:19:05;;;;;;;12.40;8.23;;;13.00;99.90;;;;;;4998045;28;20550;-56
2023/05/14 11:21:31;;;;;;;11.10;8.33;;;13.10;99.90;;;;;;4992271;28;20459;-57
2023/05/14 11:23:59;;;;;;;14.07;8.83;;;13.20;99.90;;;;;;5005497;28;20174;-56
2023/05/14 11:26:25;;;;;;;13.70;9.13;;;13.40;99.90;;;;;;4993662;28;20176;-56
2023/05/14 11:28:51;;;;;;;10.90;8.30;;;13.70;99.90;;;;;;4990193;28;20521;-56
2023/05/14 11:31:16;;;;;;;9.40;7.70;;;13.90;99.90;;;;;;4991999;28;20210;-56
2023/05/14 11:33:43;;;;;;;11.57;7.80;;;14.20;99.90;;;;;;5002402;28;20223;-57
2023/05/14 11:36:10;;;;;;;9.80;6.93;;;14.30;99.90;;;;;;5003259;28;20185;-58
2023/05/14 11:38:47;;;;;;;9.43;7.43;;;14.40;99.90;;;;;;4997162;28;20542;-56
2023/05/14 11:41:14;;;;;;;9.07;7.20;;;14.50;99.90;;;;;;4995944;28;20455;-57
2023/05/14 11:43:40;;;;;;;10.00;7.10;;;14.70;99.90;;;;;;5001089;28;20503;-57
2023/05/14 11:46:05;;;;;;;11.43;7.47;;;14.90;99.90;;;;;;4999226;28;20486;-57
2023/05/14 11:48:32;;;;;;;9.20;6.47;;;15.00;99.90;;;;;;5000441;28;20439;-56
2023/05/14 11:50:57;;;;;;;8.20;6.23;;;15.10;99.90;;;;;;4996907;28;20215;-58
2023/05/14 11:53:28;;;;;;;9.83;6.73;;;15.00;99.90;;;;;;4992443;28;20451;-57
2023/05/14 11:55:56;;;;;;;9.40;6.90;;;14.90;99.90;;;;;;4998194;28;20703;-57
2023/05/14 11:58:23;;;;;;;8.53;6.87;;;14.70;99.90;;;;;;4998296;28;20583;-57
2023/05/14 12:00:54;;;;;;;7.83;6.37;;;14.60;99.90;;;;;;4996427;28;20431;-57
2023/05/14 12:03:24;;;;;;;8.23;6.20;;;14.50;99.90;;;;;;4997157;28;20420;-52
2023/05/14 12:05:59;;;;;;;8.20;6.50;;;14.30;99.90;;;;;;4997763;28;20436;-56
2023/05/14 12:08:30;;;;;;;7.00;6.03;;;14.20;99.90;;;;;;4997448;28;21124;-57
2023/05/14 12:10:57;;;;;;;7.60;6.67;;;14.20;99.90;;;;;;4999448;28;20975;-56
2023/05/14 12:13:28;;;;;;;6.67;5.97;;;14.20;99.90;;;;;;4993211;28;21085;-57
2023/05/14 12:15:56;;;;;;;10.23;5.07;;;14.20;99.90;;;;;;4994664;28;20478;-56
2023/05/14 12:18:23;;;;;;;6.70;6.03;;;14.20;99.90;;;;;;4998146;28;20467;-59
2023/05/14 12:20:50;;;;;;;10.63;6.00;;;14.30;99.90;;;;;;4998204;28;22153;-60
2023/05/14 12:23:23;;;;;;;9.70;6.50;;;14.30;99.90;;;;;;4994737;28;20443;-59
2023/05/14 12:25:52;;;;;;;7.80;5.53;;;14.40;99.90;;;;;;4999106;28;21281;-59
2023/05/14 12:28:18;;;;;;;7.90;5.80;;;14.50;99.90;;;;;;4998557;28;20441;-60
2023/05/14 12:30:54;;;;;;;8.10;5.40;;;14.60;99.90;;;;;;4996069;28;20506;-60
2023/05/14 12:33:22;;;;;;;6.33;5.60;;;14.70;99.90;;;;;;4996890;28;20458;-60
2023/05/14 12:35:48;;;;;;;6.47;5.30;;;14.90;99.90;;;;;;4997094;28;20439;-60
2023/05/14 12:38:14;;;;;;;7.40;5.60;;;15.10;99.90;;;;;;4987418;28;20447;-59